createdAt,value
2022-10-10T00:00:17.112Z,98877.91
2022-10-10T00:04:19.071Z,98869.50
2022-10-10T00:08:21.086Z,98873.13
2022-10-10T00:12:23.111Z,98870.06
2022-10-10T00:16:25.872Z,98877.66
2022-10-10T00:20:27.922Z,98873.97
2022-10-10T00:24:30.334Z,98870.41
2022-10-10T00:28:32.742Z,98873.84
2022-10-10T00:32:36.039Z,98868.88
2022-10-10T00:36:37.989Z,98860.53
2022-10-10T00:40:51.382Z,98863.47
2022-10-10T00:45:30.059Z,98861.78
2022-10-10T00:49:32.296Z,98859.09
2022-10-10T00:53:47.002Z,98851.13
2022-10-10T00:57:49.520Z,98856.34
2022-10-10T01:01:51.501Z,98848.44
2022-10-10T01:05:53.586Z,98842.47
2022-10-10T01:10:00.009Z,98843.47
2022-10-10T01:14:04.972Z,98852.41
2022-10-10T01:18:25.818Z,98852.22
2022-10-10T01:22:53.168Z,98854.81
2022-10-10T01:27:10.126Z,98852.84
2022-10-10T01:31:15.992Z,98838.09
2022-10-10T01:35:45.931Z,98845.66
2022-10-10T01:39:58.091Z,98846.00
2022-10-10T01:44:00.106Z,98848.56
2022-10-10T01:48:05.129Z,98842.53
2022-10-10T01:52:39.159Z,98843.25
2022-10-10T01:56:55.586Z,98840.38
2022-10-10T02:00:57.553Z,98846.97
2022-10-10T02:05:25.718Z,98841.53
2022-10-10T02:09:36.047Z,98838.91
2022-10-10T02:13:58.333Z,98836.66
2022-10-10T02:18:01.855Z,98827.16
2022-10-10T02:22:07.475Z,98824.75
2022-10-10T02:26:13.895Z,98819.97
2022-10-10T02:30:17.208Z,98832.38
2022-10-10T02:34:24.038Z,98832.88
2022-10-10T02:38:28.058Z,98830.28
2022-10-10T02:42:30.338Z,98829.09
2022-10-10T02:46:32.499Z,98820.53
2022-10-10T02:50:35.027Z,98817.00
2022-10-10T02:54:36.967Z,98812.22
2022-10-10T02:58:39.016Z,98807.75
2022-10-10T03:02:41.785Z,98814.59
2022-10-10T03:06:43.844Z,98813.91
2022-10-10T03:11:04.969Z,98811.38
2022-10-10T03:15:11.408Z,98826.66
2022-10-10T03:19:13.952Z,98810.09
2022-10-10T03:23:15.998Z,98814.59
2022-10-10T03:27:17.945Z,98812.78
2022-10-10T03:31:19.916Z,98811.91
2022-10-10T03:35:21.946Z,98813.50
2022-10-10T03:39:24.992Z,98813.56
2022-10-10T03:43:26.995Z,98807.53
2022-10-10T03:47:29.010Z,98799.19
2022-10-10T03:51:30.981Z,98816.91
2022-10-10T03:55:33.054Z,98815.31
2022-10-10T03:59:35.106Z,98819.81
2022-10-10T04:03:37.209Z,98822.94
2022-10-10T04:07:41.531Z,98824.75
2022-10-10T04:11:43.535Z,98831.72
2022-10-10T04:15:45.683Z,98825.41
2022-10-10T04:19:47.651Z,98834.00
2022-10-10T04:23:49.678Z,98838.63
2022-10-10T04:27:51.631Z,98829.44
2022-10-10T04:31:53.620Z,98820.25
2022-10-10T04:35:55.616Z,98828.59
2022-10-10T04:39:57.715Z,98830.72
2022-10-10T04:43:59.676Z,98830.72
2022-10-10T04:48:01.954Z,98835.28
2022-10-10T04:52:04.009Z,98829.44
2022-10-10T04:56:06.236Z,98840.41
2022-10-10T05:00:09.641Z,98843.38
2022-10-10T05:04:13.251Z,98847.44
2022-10-10T05:08:15.349Z,98853.19
2022-10-10T05:12:17.480Z,98841.88
2022-10-10T05:16:19.520Z,98835.44
2022-10-10T05:20:22.109Z,98836.19
2022-10-10T05:24:24.516Z,98843.22
2022-10-10T05:28:26.790Z,98841.56
2022-10-10T05:32:29.996Z,98841.19
2022-10-10T05:36:47.474Z,98838.50
2022-10-10T05:40:58.141Z,98846.09
2022-10-10T05:45:02.308Z,98840.19
2022-10-10T05:49:06.019Z,98855.22
2022-10-10T05:53:08.617Z,98857.00
2022-10-10T05:57:16.069Z,98859.47
2022-10-10T06:01:19.747Z,98866.59
2022-10-10T06:05:47.838Z,98859.53
2022-10-10T06:10:02.036Z,98870.44
2022-10-10T06:14:13.368Z,98877.25
2022-10-10T06:18:16.782Z,98874.59
2022-10-10T06:22:19.665Z,98877.72
2022-10-10T06:26:22.988Z,98874.44
2022-10-10T06:30:25.616Z,98879.66
2022-10-10T06:34:29.716Z,98889.13
2022-10-10T06:38:37.932Z,98885.84
2022-10-10T06:42:41.176Z,98893.19
2022-10-10T06:46:44.695Z,98879.00
2022-10-10T06:50:57.906Z,98876.94
2022-10-10T06:55:00.016Z,98874.91
2022-10-10T06:59:02.226Z,98882.22
2022-10-10T07:03:04.638Z,98889.13
2022-10-10T07:07:06.795Z,98890.59
2022-10-10T07:11:09.573Z,98880.22
2022-10-10T07:15:12.052Z,98893.81
2022-10-10T07:19:14.111Z,98888.41
2022-10-10T07:23:16.641Z,98885.53
2022-10-10T07:27:18.670Z,98892.25
2022-10-10T07:31:20.726Z,98890.22
2022-10-10T07:35:23.786Z,98887.66
2022-10-10T07:39:26.513Z,98887.28
2022-10-10T07:43:28.558Z,98888.47
2022-10-10T07:47:31.114Z,98889.63
2022-10-10T07:51:33.611Z,98898.56
2022-10-10T07:55:42.363Z,98907.81
2022-10-10T07:59:45.816Z,98902.47
2022-10-10T08:03:48.696Z,98901.63
2022-10-10T08:07:51.178Z,98899.66
2022-10-10T08:11:53.605Z,98893.94
2022-10-10T08:15:55.907Z,98892.03
2022-10-10T08:19:58.783Z,98896.44
2022-10-10T08:24:00.954Z,98891.78
2022-10-10T08:28:03.317Z,98890.75
2022-10-10T08:32:07.778Z,98884.78
2022-10-10T08:36:13.998Z,98878.19
2022-10-10T08:40:19.711Z,98883.13
2022-10-10T08:44:25.407Z,98880.13
2022-10-10T08:48:31.649Z,98879.16
2022-10-10T08:52:41.858Z,98874.72
2022-10-10T08:56:47.472Z,98881.91
2022-10-10T09:01:25.121Z,98885.25
2022-10-10T09:05:42.609Z,98881.25
2022-10-10T09:10:03.215Z,98875.38
2022-10-10T09:14:32.816Z,98877.59
2022-10-10T09:18:34.789Z,98872.31
2022-10-10T09:22:53.195Z,98873.41
2022-10-10T09:27:04.384Z,98879.25
2022-10-10T09:31:15.017Z,98875.88
2022-10-10T09:35:20.863Z,98868.72
2022-10-10T09:39:38.224Z,98869.75
2022-10-10T09:43:42.227Z,98872.44
2022-10-10T09:47:45.231Z,98869.56
2022-10-10T09:51:48.759Z,98863.94
2022-10-10T09:55:53.879Z,98859.50
2022-10-10T10:00:02.257Z,98861.41
2022-10-10T10:04:28.384Z,98859.69
2022-10-10T10:08:34.464Z,98858.22
2022-10-10T10:12:42.127Z,98864.94
2022-10-10T10:16:45.574Z,98858.78
2022-10-10T10:21:11.872Z,98856.06
2022-10-10T10:25:38.306Z,98865.97
2022-10-10T10:29:47.218Z,98872.16
2022-10-10T10:34:23.336Z,98858.44
2022-10-10T10:38:47.073Z,98857.59
2022-10-10T10:43:30.558Z,98849.50
2022-10-10T10:47:58.702Z,98857.41
2022-10-10T10:52:07.368Z,98847.56
2022-10-10T10:56:37.312Z,98848.72
2022-10-10T11:01:23.525Z,98847.38
2022-10-10T11:05:39.868Z,98853.94
2022-10-10T11:10:03.273Z,98861.31
2022-10-10T11:14:42.716Z,98870.47
2022-10-10T11:19:04.401Z,98861.88
2022-10-10T11:23:24.760Z,98863.00
2022-10-10T11:27:34.686Z,98863.34
2022-10-10T11:31:45.636Z,98869.06
2022-10-10T11:35:58.195Z,98861.06
2022-10-10T11:40:05.223Z,98858.31
2022-10-10T11:44:30.019Z,98857.03
2022-10-10T11:48:48.888Z,98861.31
2022-10-10T11:53:03.199Z,98867.53
2022-10-10T11:57:17.105Z,98860.66
2022-10-10T12:01:23.028Z,98868.25
2022-10-10T12:05:47.685Z,98868.00
2022-10-10T12:10:08.394Z,98866.97
2022-10-10T12:14:18.792Z,98862.88
2022-10-10T12:18:45.287Z,98859.41
2022-10-10T12:23:39.321Z,98850.97
2022-10-10T12:33:28.676Z,98845.84
2022-10-10T12:53:22.811Z,98824.53
2022-10-10T12:57:48.756Z,98823.81
2022-10-10T13:02:10.652Z,98825.50
2022-10-10T13:06:37.546Z,98821.91
2022-10-10T13:11:13.458Z,98826.59
2022-10-10T13:15:21.189Z,98824.13
2022-10-10T13:19:25.813Z,98812.84
2022-10-10T13:23:28.613Z,98806.66
2022-10-10T13:27:33.807Z,98808.19
2022-10-10T13:31:38.594Z,98798.53
2022-10-10T13:35:40.717Z,98806.13
2022-10-10T13:39:48.827Z,98799.75
2022-10-10T13:43:58.165Z,98804.03
2022-10-10T13:48:05.479Z,98796.38
2022-10-10T13:52:25.896Z,98788.75
2022-10-10T13:56:41.309Z,98789.47
2022-10-10T14:00:55.456Z,98781.47
2022-10-10T14:04:58.464Z,98789.13
2022-10-10T14:09:18.267Z,98780.66
2022-10-10T14:13:20.542Z,98772.63
2022-10-10T14:17:22.924Z,98775.91
2022-10-10T14:21:24.920Z,98772.41
2022-10-10T14:25:26.883Z,98783.94
2022-10-10T14:29:32.015Z,98777.03
2022-10-10T14:33:34.488Z,98784.28
2022-10-10T14:37:39.775Z,98788.94
2022-10-10T14:41:46.432Z,98779.75
2022-10-10T14:46:02.320Z,98781.44
2022-10-10T14:50:14.639Z,98778.84
2022-10-10T14:54:16.837Z,98781.00
2022-10-10T14:58:23.786Z,98774.66
2022-10-10T15:02:28.835Z,98773.53
2022-10-10T15:06:30.938Z,98775.59
2022-10-10T15:10:34.526Z,98777.81
2022-10-10T15:14:37.752Z,98783.84
2022-10-10T15:18:53.829Z,98776.50
2022-10-10T15:23:01.575Z,98777.13
2022-10-10T15:27:03.816Z,98772.47
2022-10-10T15:31:06.156Z,98776.81
2022-10-10T15:35:13.938Z,98779.66
2022-10-10T15:39:16.675Z,98781.59
2022-10-10T15:43:18.631Z,98784.66
2022-10-10T15:47:20.967Z,98785.03
2022-10-10T15:51:22.965Z,98784.47
2022-10-10T15:55:25.137Z,98779.25
2022-10-10T15:59:27.192Z,98779.13
2022-10-10T16:03:29.498Z,98776.09
2022-10-10T16:07:36.442Z,98779.13
2022-10-10T16:11:42.889Z,98774.34
2022-10-10T16:15:45.224Z,98781.03
2022-10-10T16:19:47.169Z,98772.84
2022-10-10T16:23:54.280Z,98771.06
2022-10-10T16:27:59.744Z,98777.06
2022-10-10T16:32:01.722Z,98783.72
2022-10-10T16:36:17.648Z,98785.72
2022-10-10T16:40:19.783Z,98787.94
2022-10-10T16:44:22.097Z,98789.81
2022-10-10T16:48:24.074Z,98800.50
2022-10-10T16:52:26.189Z,98810.66
2022-10-10T16:56:29.874Z,98818.84
2022-10-10T17:00:32.011Z,98824.03
2022-10-10T17:04:34.199Z,98819.22
2022-10-10T17:08:36.959Z,98818.41
2022-10-10T17:12:38.996Z,98820.50
2022-10-10T17:21:05.300Z,98835.41
2022-10-10T17:25:08.037Z,98838.91
2022-10-10T17:29:10.129Z,98846.25
2022-10-10T17:33:13.782Z,98847.41
2022-10-10T17:37:15.866Z,98855.63
2022-10-10T17:41:19.859Z,98848.47
2022-10-10T17:45:21.820Z,98857.50
2022-10-10T17:49:24.156Z,98861.13
2022-10-10T17:53:26.715Z,98863.22
2022-10-10T17:57:28.725Z,98860.91
2022-10-10T18:01:31.262Z,98862.78
2022-10-10T18:05:36.115Z,98871.31
2022-10-10T18:09:38.207Z,98856.78
2022-10-10T18:13:40.311Z,98859.78
2022-10-10T18:17:42.432Z,98861.16
2022-10-10T18:21:45.980Z,98870.97
2022-10-10T18:25:48.020Z,98866.38
2022-10-10T18:29:50.091Z,98866.06
2022-10-10T18:33:52.528Z,98864.19
2022-10-10T18:37:54.526Z,98864.19
2022-10-10T18:41:56.604Z,98860.19
2022-10-10T18:46:00.354Z,98863.97
2022-10-10T18:50:03.504Z,98871.22
2022-10-10T18:54:08.506Z,98869.31
2022-10-10T18:58:10.590Z,98869.50
2022-10-10T19:02:12.731Z,98871.63
2022-10-10T19:06:15.792Z,98863.75
2022-10-10T19:10:17.906Z,98865.22
2022-10-10T19:14:20.704Z,98882.47
2022-10-10T19:18:23.983Z,98871.69
2022-10-10T19:22:25.990Z,98879.28
2022-10-10T19:26:33.386Z,98874.09
2022-10-10T19:30:40.478Z,98876.47
2022-10-10T19:34:42.893Z,98871.69
2022-10-10T19:38:44.882Z,98873.78
2022-10-10T19:42:47.099Z,98870.31
2022-10-10T19:46:49.083Z,98876.78
2022-10-10T19:50:53.565Z,98882.16
2022-10-10T19:54:55.662Z,98868.91
2022-10-10T19:58:59.853Z,98872.69
2022-10-10T20:03:02.399Z,98882.28
2022-10-10T20:07:04.482Z,98878.19
2022-10-10T20:11:06.886Z,98882.47
2022-10-10T20:15:09.246Z,98892.03
2022-10-10T20:19:11.515Z,98883.25
2022-10-10T20:23:14.881Z,98885.78
2022-10-10T20:27:17.056Z,98888.25
2022-10-10T20:31:31.357Z,98881.28
2022-10-10T20:35:34.634Z,98889.06
2022-10-10T20:39:36.648Z,98895.66
2022-10-10T20:43:39.549Z,98905.13
2022-10-10T20:47:41.659Z,98898.50
2022-10-10T20:51:48.821Z,98900.41
2022-10-10T20:55:54.095Z,98902.44
2022-10-10T20:59:56.125Z,98908.41
2022-10-10T21:03:58.768Z,98901.06
2022-10-10T21:08:01.750Z,98903.75
2022-10-10T21:12:04.061Z,98912.59
2022-10-10T21:16:16.911Z,98914.28
2022-10-10T21:20:19.214Z,98915.06
2022-10-10T21:24:21.191Z,98911.44
2022-10-10T21:28:23.383Z,98907.91
2022-10-10T21:32:26.535Z,98911.03
2022-10-10T21:36:29.070Z,98910.06
2022-10-10T21:40:31.074Z,98919.06
2022-10-10T21:44:33.124Z,98923.38
2022-10-10T21:48:35.275Z,98914.25
2022-10-10T21:52:37.642Z,98919.06
2022-10-10T21:56:40.220Z,98917.81
2022-10-10T22:00:42.286Z,98913.03
2022-10-10T22:04:44.291Z,98918.13
2022-10-10T22:08:47.335Z,98923.03
2022-10-10T22:12:49.286Z,98917.75
2022-10-10T22:16:51.227Z,98914.38
2022-10-10T22:20:53.710Z,98925.56
2022-10-10T22:24:55.708Z,98916.16
2022-10-10T22:28:58.496Z,98918.53
2022-10-10T22:33:00.751Z,98915.91
2022-10-10T22:37:02.755Z,98918.91
2022-10-10T22:41:04.775Z,98918.09
2022-10-10T22:45:07.130Z,98916.78
2022-10-10T22:49:09.136Z,98925.28
2022-10-10T22:53:11.080Z,98921.28
2022-10-10T22:57:13.031Z,98925.06
2022-10-10T23:01:18.073Z,98922.97
2022-10-10T23:05:20.073Z,98924.59
2022-10-10T23:09:22.033Z,98927.81
2022-10-10T23:13:23.983Z,98920.22
2022-10-10T23:17:25.948Z,98918.78
2022-10-10T23:21:28.082Z,98912.63
2022-10-10T23:25:30.093Z,98916.09
2022-10-10T23:29:33.276Z,98914.13
2022-10-10T23:33:37.170Z,98914.13
2022-10-10T23:37:40.859Z,98906.66
2022-10-10T23:41:42.932Z,98913.22
2022-10-10T23:45:44.988Z,98912.22
2022-10-10T23:49:46.965Z,98920.09
2022-10-10T23:53:48.989Z,98911.44
2022-10-10T23:57:51.090Z,98911.94
